Time;durP1;ratioP1;P1;durP2;ratioP2;P2;SDS_P1;SDS_P2;PMS_P1;PMS_P2;Temp;Humidity;BMP_temperature;BMP_pressure;BME280_temperature;BME280_humidity;BME280_pressure;Samples;Min_cycle;Max_cycle;Signal;HPM_P1;HPM_P2
2023/06/22 00:01:54;;;;;;;4.68;2.60;;;;;;;23.79;54.84;101849.88;5024334;28;20501;-50
2023/06/22 00:04:20;;;;;;;3.70;2.13;;;;;;;23.78;54.93;101842.75;5019393;28;20700;-51
2023/06/22 00:06:45;;;;;;;4.00;2.05;;;;;;;23.78;54.79;101850.03;5022922;28;20065;-49
2023/06/22 00:09:11;;;;;;;3.03;2.38;;;;;;;23.78;55.02;101847.31;5021024;28;20072;-50
2023/06/22 00:11:37;;;;;;;5.07;2.40;;;;;;;23.78;55.21;101841.88;5023469;28;20095;-49
2023/06/22 00:14:04;;;;;;;2.75;1.95;;;;;;;23.76;55.06;101832.97;5022055;28;20029;-49
2023/06/22 00:16:32;;;;;;;3.15;2.17;;;;;;;23.75;55.01;101848.44;5021685;28;20053;-50
2023/06/22 00:19:00;;;;;;;2.58;2.33;;;;;;;23.75;55.17;101842.16;5022344;28;20033;-50
2023/06/22 00:21:28;;;;;;;2.80;2.10;;;;;;;23.74;55.29;101833.16;5021704;28;20034;-50
2023/06/22 00:23:54;;;;;;;5.93;2.55;;;;;;;23.74;54.82;101840.44;5020781;28;20472;-51
2023/06/22 00:26:20;;;;;;;2.30;2.10;;;;;;;23.73;55.44;101838.75;5018737;28;20030;-50
2023/06/22 00:28:46;;;;;;;2.75;2.00;;;;;;;23.72;54.90;101840.63;5022753;28;20538;-49
2023/06/22 00:31:11;;;;;;;3.22;2.20;;;;;;;23.72;54.84;101839.75;5023923;28;20117;-49
2023/06/22 00:33:36;;;;;;;2.95;2.35;;;;;;;23.71;54.73;101833.47;5021572;28;20037;-50
2023/06/22 00:36:03;;;;;;;3.03;2.47;;;;;;;23.72;54.67;101842.47;5021589;28;20104;-50
2023/06/22 00:38:28;;;;;;;5.28;2.97;;;;;;;23.70;55.00;101842.63;5022675;28;20472;-49
2023/06/22 00:40:54;;;;;;;4.45;2.47;;;;;;;23.69;54.99;101843.66;5021405;28;20091;-49
2023/06/22 00:43:19;;;;;;;2.88;2.45;;;;;;;23.69;55.28;101840.94;5021697;28;20033;-49
2023/06/22 00:45:45;;;;;;;2.70;2.20;;;;;;;23.68;54.80;101839.22;5022418;28;20059;-50
2023/06/22 00:48:12;;;;;;;3.20;2.40;;;;;;;23.68;54.97;101836.50;5020131;28;20100;-51
2023/06/22 00:50:37;;;;;;;2.85;2.40;;;;;;;23.67;54.76;101834.81;5021845;28;20041;-51
2023/06/22 00:53:08;;;;;;;5.20;2.55;;;;;;;23.67;55.01;101831.25;5021722;28;20033;-50
2023/06/22 00:55:38;;;;;;;5.17;2.73;;;;;;;23.66;54.65;101830.38;5022061;28;20172;-50
2023/06/22 00:58:10;;;;;;;2.47;2.10;;;;;;;23.65;54.75;101836.84;5021997;28;20160;-49
2023/06/22 01:00:36;;;;;;;3.63;2.53;;;;;;;23.64;54.87;101835.13;5022112;28;20556;-49
2023/06/22 01:03:02;;;;;;;2.60;2.33;;;;;;;23.64;54.74;101837.84;5021306;28;20116;-47
2023/06/22 01:05:30;;;;;;;3.63;2.25;;;;;;;23.64;55.08;101823.41;5018506;28;20036;-50
2023/06/22 01:08:14;;;;;;;2.50;2.30;;;;;;;23.65;54.78;101823.25;5021936;28;20061;-50
2023/06/22 01:10:53;;;;;;;5.82;2.67;;;;;;;23.61;54.79;101820.00;5020522;28;20040;-47
2023/06/22 01:13:31;;;;;;;4.63;2.42;;;;;;;23.60;54.57;101815.56;5021995;28;20036;-50
2023/06/22 01:16:03;;;;;;;3.70;2.75;;;;;;;23.59;54.67;101822.03;5020978;28;20108;-51
2023/06/22 01:18:30;;;;;;;5.35;2.63;;;;;;;23.59;54.43;101815.75;5020287;28;20039;-49
2023/06/22 01:20:57;;;;;;;4.70;2.65;;;;;;;23.58;54.58;101814.03;5030465;28;20065;-49
2023/06/22 01:23:41;;;;;;;4.22;2.58;;;;;;;23.61;54.37;101824.59;5019014;28;20041;-50
2023/06/22 01:26:32;;;;;;;3.25;2.70;;;;;;;23.58;54.82;101825.75;5020528;28;20061;-50
2023/06/22 01:29:00;;;;;;;5.55;3.08;;;;;;;23.56;54.62;101826.91;5019679;28;20124;-50
2023/06/22 01:31:29;;;;;;;3.35;3.00;;;;;;;23.56;54.52;101835.91;5025064;28;20029;-51
2023/06/22 01:33:59;;;;;;;3.78;2.85;;;;;;;23.56;54.80;101826.91;5021357;28;20037;-49
2023/06/22 01:36:26;;;;;;;4.85;3.10;;;;;;;23.55;54.57;101827.91;5019358;28;20074;-49
2023/06/22 01:38:52;;;;;;;4.32;2.45;;;;;;;23.55;54.53;101825.19;5020932;28;20895;-50
2023/06/22 01:41:19;;;;;;;4.55;2.45;;;;;;;23.54;54.45;101828.94;5014021;28;20040;-51
2023/06/22 01:43:45;;;;;;;3.95;3.08;;;;;;;23.53;54.78;101827.22;5019980;28;20038;-51
2023/06/22 01:46:11;;;;;;;4.10;2.45;;;;;;;23.52;54.94;101822.81;5020025;28;20042;-50
2023/06/22 01:48:38;;;;;;;7.97;2.95;;;;;;;23.51;54.49;101821.94;5021148;28;20176;-49
2023/06/22 01:51:04;;;;;;;4.72;2.97;;;;;;;23.51;54.86;101818.38;5021102;28;20038;-51
2023/06/22 01:53:29;;;;;;;4.45;3.25;;;;;;;23.51;54.58;101818.38;5020510;28;20040;-50
2023/06/22 01:55:56;;;;;;;6.07;3.45;;;;;;;23.50;54.61;101811.25;5021806;28;20120;-49
2023/06/22 01:58:25;;;;;;;4.57;3.40;;;;;;;23.49;54.92;101812.25;5019931;28;20033;-49
2023/06/22 02:00:57;;;;;;;5.55;3.72;;;;;;;23.48;54.92;101818.72;5021332;28;20038;-49
2023/06/22 02:03:29;;;;;;;6.57;3.47;;;;;;;23.47;54.65;101817.00;5018526;28;20034;-51
2023/06/22 02:06:08;;;;;;;7.00;3.70;;;;;;;23.48;54.86;101816.00;5019268;28;20034;-48
2023/06/22 02:08:41;;;;;;;5.50;3.92;;;;;;;23.47;54.39;101814.28;5019877;28;20045;-50
2023/06/22 02:11:09;;;;;;;4.70;3.42;;;;;;;23.46;54.51;101807.16;5019508;28;20045;-51
2023/06/22 02:13:37;;;;;;;7.68;3.75;;;;;;;23.45;54.84;101811.72;5019519;28;20032;-51
2023/06/22 02:16:03;;;;;;;7.30;3.78;;;;;;;23.45;54.79;101808.16;5020543;28;20041;-50
2023/06/22 02:18:29;;;;;;;6.85;4.13;;;;;;;23.43;54.78;101809.16;5018846;28;20034;-49
2023/06/22 02:20:54;;;;;;;8.07;4.50;;;;;;;23.43;54.81;101801.00;5020078;28;20442;-50
2023/06/22 02:23:19;;;;;;;6.88;3.83;;;;;;;23.44;54.90;101810.03;5020653;28;20065;-50
2023/06/22 02:25:45;;;;;;;6.97;4.22;;;;;;;23.42;54.37;101810.19;5019683;28;20025;-49
2023/06/22 02:28:10;;;;;;;4.40;3.70;;;;;;;23.42;55.00;101810.19;5019859;28;20043;-50
2023/06/22 02:30:36;;;;;;;7.38;3.60;;;;;;;23.41;54.94;101808.47;5019458;28;20068;-49
2023/06/22 02:33:01;;;;;;;4.25;3.67;;;;;;;23.42;54.42;101803.91;5019247;28;20056;-50
2023/06/22 02:35:35;;;;;;;6.22;4.15;;;;;;;23.40;54.66;101798.63;5021055;28;20372;-49
2023/06/22 02:38:02;;;;;;;5.32;3.72;;;;;;;23.40;54.86;101795.06;5019861;28;20119;-48
2023/06/22 02:40:31;;;;;;;6.45;4.07;;;;;;;23.39;54.62;101796.06;5017005;28;20034;-50
2023/06/22 02:43:01;;;;;;;4.78;4.25;;;;;;;23.39;54.94;101798.78;5019082;28;20079;-50
2023/06/22 02:45:26;;;;;;;7.22;3.67;;;;;;;23.39;54.64;101793.34;5019845;28;20037;-50
2023/06/22 02:47:52;;;;;;;4.97;4.10;;;;;;;23.38;55.04;101787.06;5019572;28;20376;-49
2023/06/22 02:50:17;;;;;;;8.45;4.30;;;;;;;23.37;54.62;101788.06;5019582;28;20113;-48
2023/06/22 02:52:43;;;;;;;7.22;4.43;;;;;;;23.36;54.84;101785.50;5020058;28;20156;-49
2023/06/22 02:55:08;;;;;;;9.15;4.80;;;;;;;23.35;54.71;101790.06;5020826;28;20065;-51
2023/06/22 02:57:34;;;;;;;6.95;4.15;;;;;;;23.36;54.53;101788.22;5019955;28;20040;-50
2023/06/22 02:59:59;;;;;;;6.80;4.40;;;;;;;23.34;54.94;101788.38;5020107;28;20033;-50
2023/06/22 03:02:26;;;;;;;6.40;4.22;;;;;;;23.33;54.58;101774.94;5021749;28;20041;-49
2023/06/22 03:04:53;;;;;;;7.57;4.40;;;;;;;23.33;54.89;101777.66;5023306;28;20472;-50
2023/06/22 03:07:20;;;;;;;9.95;4.70;;;;;;;23.31;55.02;101780.53;5021595;28;20053;-49
2023/06/22 03:09:45;;;;;;;6.25;4.07;;;;;;;23.32;54.58;101771.41;5022182;28;20044;-49
2023/06/22 03:12:11;;;;;;;6.32;4.38;;;;;;;23.32;54.55;101756.94;5023802;28;20540;-49
2023/06/22 03:14:36;;;;;;;7.25;3.88;;;;;;;23.31;54.49;101758.81;5031327;28;20061;-50
2023/06/22 03:17:03;;;;;;;7.63;4.50;;;;;;;23.29;54.57;101760.84;5020418;28;20060;-49
2023/06/22 03:19:29;;;;;;;8.00;4.20;;;;;;;23.28;54.75;101752.84;5024407;28;20034;-50
2023/06/22 03:21:55;;;;;;;10.07;4.53;;;;;;;23.28;54.26;101759.09;5024728;28;20759;-51
2023/06/22 03:24:20;;;;;;;8.77;4.25;;;;;;;23.27;54.75;101762.84;5023426;28;20068;-51
2023/06/22 03:26:46;;;;;;;6.43;4.22;;;;;;;23.27;54.59;101762.84;5022830;28;20037;-50
2023/06/22 03:29:12;;;;;;;7.95;4.65;;;;;;;23.27;54.84;101751.16;5023209;28;20952;-51
2023/06/22 03:31:37;;;;;;;6.15;4.15;;;;;;;23.25;54.39;101748.59;5027304;28;20521;-48
2023/06/22 03:34:03;;;;;;;6.28;4.50;;;;;;;23.25;54.96;101756.72;5021258;28;20044;-51
2023/06/22 03:36:28;;;;;;;9.00;4.03;;;;;;;23.24;54.78;101755.00;5023617;28;20079;-51
2023/06/22 03:38:54;;;;;;;8.82;4.53;;;;;;;23.22;54.37;101749.72;5024554;28;20041;-49
2023/06/22 03:41:19;;;;;;;7.47;4.65;;;;;;;23.23;54.01;101750.59;5023549;28;20032;-50
2023/06/22 03:43:45;;;;;;;9.30;4.68;;;;;;;23.22;54.74;101744.28;5022175;28;20479;-50
2023/06/22 03:46:10;;;;;;;7.78;4.90;;;;;;;23.21;54.60;101748.03;5007168;28;20488;-51
2023/06/22 03:48:35;;;;;;;8.15;4.13;;;;;;;23.20;54.51;101743.59;5022875;28;20484;-49
2023/06/22 03:51:02;;;;;;;9.20;4.80;;;;;;;23.20;54.80;101745.47;5022574;28;20041;-49
2023/06/22 03:53:28;;;;;;;5.82;4.75;;;;;;;23.21;54.79;101747.19;5022219;28;20024;-51
2023/06/22 03:55:53;;;;;;;6.82;4.60;;;;;;;23.20;54.90;101745.47;5023353;28;20123;-50
2023/06/22 03:58:20;;;;;;;7.32;4.85;;;;;;;23.19;54.81;101739.19;5022253;28;20247;-47
2023/06/22 04:00:49;;;;;;;6.78;5.00;;;;;;;23.19;54.43;101727.50;5022896;28;20030;-48
2023/06/22 04:03:15;;;;;;;10.68;5.25;;;;;;;23.19;54.73;101732.91;5022485;28;20431;-50
2023/06/22 04:05:41;;;;;;;6.03;4.85;;;;;;;23.18;54.51;101739.34;5020276;28;20083;-50
2023/06/22 04:08:07;;;;;;;7.78;5.43;;;;;;;23.17;54.84;101734.91;5022578;28;20136;-50
2023/06/22 04:10:32;;;;;;;12.05;5.28;;;;;;;23.17;54.63;101741.22;5024176;28;20049;-50
2023/06/22 04:12:58;;;;;;;9.02;5.18;;;;;;;23.17;54.47;101740.34;5021916;28;20109;-51
2023/06/22 04:15:23;;;;;;;7.40;5.10;;;;;;;23.17;54.71;101734.91;5023643;28;20033;-50
2023/06/22 04:17:48;;;;;;;9.15;5.05;;;;;;;23.16;54.95;101733.22;5023648;28;20059;-49
2023/06/22 04:20:14;;;;;;;6.30;4.45;;;;;;;23.15;54.66;101732.38;5022438;28;20052;-48
2023/06/22 04:22:39;;;;;;;5.65;5.03;;;;;;;23.15;55.02;101729.66;5021753;28;20121;-50
2023/06/22 04:25:07;;;;;;;8.38;5.10;;;;;;;23.14;54.92;101735.25;5022139;28;20034;-49
2023/06/22 04:27:33;;;;;;;8.00;4.60;;;;;;;23.14;54.85;101729.81;5022363;28;20065;-50
2023/06/22 04:30:00;;;;;;;8.25;4.88;;;;;;;23.14;55.07;101746.13;5018966;28;20117;-50
2023/06/22 04:32:25;;;;;;;8.45;5.18;;;;;;;23.14;55.33;101746.13;5021345;28;20091;-50
2023/06/22 04:34:52;;;;;;;8.02;5.00;;;;;;;23.14;55.20;101740.69;5021008;28;20042;-50
2023/06/22 04:37:17;;;;;;;7.50;4.88;;;;;;;23.14;54.87;101738.81;5022410;28;20599;-49
2023/06/22 04:39:43;;;;;;;6.75;4.88;;;;;;;23.14;55.34;101740.69;5022558;28;20384;-50
2023/06/22 04:42:09;;;;;;;5.35;4.50;;;;;;;23.13;55.35;101744.41;5023039;28;20392;-50
2023/06/22 04:44:34;;;;;;;8.02;5.20;;;;;;;23.13;55.43;101752.56;5021218;28;20025;-50
2023/06/22 04:47:03;;;;;;;7.30;5.43;;;;;;;23.13;55.06;101747.13;5021037;28;20033;-51
2023/06/22 04:49:32;;;;;;;6.60;4.97;;;;;;;23.12;55.36;101745.44;5021644;28;20476;-50
2023/06/22 04:52:09;;;;;;;11.10;5.25;;;;;;;23.12;55.03;101750.88;5026008;28;20026;-50
2023/06/22 04:54:36;;;;;;;7.00;5.30;;;;;;;23.12;55.34;101748.16;5021670;28;20033;-50
2023/06/22 04:57:09;;;;;;;7.10;5.38;;;;;;;23.12;55.33;101742.72;5020896;28;20036;-49
2023/06/22 04:59:35;;;;;;;7.50;4.95;;;;;;;23.12;55.13;101748.16;5021356;28;20041;-50
2023/06/22 05:02:02;;;;;;;6.60;5.35;;;;;;;23.10;55.21;101751.00;5021298;28;20036;-51
2023/06/22 05:04:31;;;;;;;7.93;5.78;;;;;;;23.10;55.54;101747.47;5021565;28;20030;-49
2023/06/22 05:06:57;;;;;;;8.88;5.63;;;;;;;23.11;55.52;101743.72;5022067;28;20124;-51
2023/06/22 05:09:22;;;;;;;7.30;5.35;;;;;;;23.10;55.88;101739.31;5018858;28;20033;-50
2023/06/22 05:11:47;;;;;;;8.77;5.43;;;;;;;23.11;55.51;101738.28;5021427;28;20084;-49
2023/06/22 05:14:13;;;;;;;7.15;5.68;;;;;;;23.11;55.82;101735.56;5021442;28;20037;-49
2023/06/22 05:16:41;;;;;;;7.40;5.70;;;;;;;23.10;56.13;101739.31;5021720;28;20037;-49
2023/06/22 05:19:06;;;;;;;7.07;5.50;;;;;;;23.11;56.20;101741.00;5021287;28;20442;-50
2023/06/22 05:21:32;;;;;;;7.60;5.85;;;;;;;23.10;56.12;101736.59;5024608;28;20125;-51
2023/06/22 05:24:00;;;;;;;8.98;5.47;;;;;;;23.11;55.90;101746.44;5013914;28;20500;-51
2023/06/22 05:26:26;;;;;;;7.95;5.50;;;;;;;23.11;55.93;101747.28;5022174;28;20044;-50
2023/06/22 05:28:52;;;;;;;7.43;5.53;;;;;;;23.11;56.46;101751.84;5025294;28;20069;-50
2023/06/22 05:31:19;;;;;;;9.32;5.78;;;;;;;23.10;56.02;101750.16;5024069;28;20017;-50
2023/06/22 05:33:46;;;;;;;10.20;5.82;;;;;;;23.09;56.76;101748.44;5020493;28;20030;-50
2023/06/22 05:36:12;;;;;;;8.60;5.63;;;;;;;23.08;56.71;101739.47;5019354;28;20435;-51
2023/06/22 05:38:38;;;;;;;9.45;6.22;;;;;;;23.09;56.28;101732.16;5017239;28;20129;-49
2023/06/22 05:41:04;;;;;;;8.68;6.18;;;;;;;23.09;56.82;101735.72;5019339;28;20037;-49
2023/06/22 05:43:30;;;;;;;9.48;6.18;;;;;;;23.10;56.87;101733.88;5021025;28;20483;-48
2023/06/22 05:45:55;;;;;;;9.40;5.95;;;;;;;23.09;56.71;101732.16;5021470;28;20022;-49
2023/06/22 05:48:21;;;;;;;8.35;6.03;;;;;;;23.10;56.69;101728.44;5020369;28;20431;-46
2023/06/22 05:50:46;;;;;;;6.15;5.43;;;;;;;23.10;56.81;101723.00;5021026;28;20472;-47
2023/06/22 05:53:12;;;;;;;7.70;6.38;;;;;;;23.10;57.12;101733.88;5021230;28;20033;-48
2023/06/22 05:55:37;;;;;;;10.10;5.85;;;;;;;23.11;56.87;101738.28;5021283;28;20162;-49
2023/06/22 05:58:05;;;;;;;7.63;6.22;;;;;;;23.10;56.87;101739.31;5019440;28;20057;-48
2023/06/22 06:00:31;;;;;;;10.43;5.85;;;;;;;23.10;56.94;101739.31;5019922;28;20037;-46
2023/06/22 06:02:57;;;;;;;9.27;6.20;;;;;;;23.10;57.07;101744.75;5026347;28;20095;-50
2023/06/22 06:05:23;;;;;;;9.75;6.40;;;;;;;23.09;56.87;101737.59;5016285;28;20388;-48
2023/06/22 06:07:49;;;;;;;8.65;6.28;;;;;;;23.10;57.53;101736.59;5019944;28;20058;-49
2023/06/22 06:10:15;;;;;;;9.98;5.97;;;;;;;23.11;57.25;101738.28;5020786;28;20034;-50
2023/06/22 06:12:40;;;;;;;11.32;6.20;;;;;;;23.11;57.47;101735.56;5019934;28;20061;-51
2023/06/22 06:15:06;;;;;;;7.43;6.40;;;;;;;23.10;57.48;101733.88;5020206;28;20033;-48
2023/06/22 06:17:31;;;;;;;14.15;6.30;;;;;;;23.10;57.48;101729.28;5018400;28;20396;-49
2023/06/22 06:19:58;;;;;;;9.02;6.95;;;;;;;23.11;57.54;101719.25;5019101;28;20123;-49
2023/06/22 06:22:24;;;;;;;8.35;6.00;;;;;;;23.09;57.42;101721.28;5019550;28;20140;-49
2023/06/22 06:24:49;;;;;;;9.02;6.72;;;;;;;23.11;57.72;101719.25;5017416;28;20112;-49
2023/06/22 06:27:18;;;;;;;9.50;6.80;;;;;;;23.11;57.80;101724.69;5018657;28;20045;-49
2023/06/22 06:29:45;;;;;;;9.00;6.43;;;;;;;23.10;57.60;101728.44;5019928;28;20034;-49
2023/06/22 06:32:11;;;;;;;7.97;6.43;;;;;;;23.12;57.67;101731.84;5021099;28;20408;-51
2023/06/22 06:34:36;;;;;;;7.53;6.10;;;;;;;23.12;57.57;101727.25;5016905;28;20025;-47
2023/06/22 06:37:01;;;;;;;8.10;6.20;;;;;;;23.11;57.91;101728.25;5017655;28;20029;-47
2023/06/22 06:39:27;;;;;;;8.75;6.50;;;;;;;23.11;57.71;101724.69;5018459;28;20038;-49
2023/06/22 06:41:52;;;;;;;9.57;7.22;;;;;;;23.13;57.95;101728.09;5016736;28;20095;-51
2023/06/22 06:44:18;;;;;;;9.00;6.65;;;;;;;23.12;58.19;101726.41;5017615;28;20376;-50
2023/06/22 06:46:43;;;;;;;8.32;6.18;;;;;;;23.12;58.29;101721.81;5018754;28;20046;-46
2023/06/22 06:49:08;;;;;;;6.93;6.03;;;;;;;23.13;58.30;101728.97;5020631;28;20035;-48
2023/06/22 06:51:34;;;;;;;8.75;6.57;;;;;;;23.13;57.95;101725.38;5020962;28;20395;-48
2023/06/22 06:53:59;;;;;;;6.93;6.10;;;;;;;23.12;58.17;101720.97;5019482;28;20546;-47
2023/06/22 06:56:24;;;;;;;8.45;6.70;;;;;;;23.13;58.65;101719.94;5019749;28;20044;-46
2023/06/22 06:58:50;;;;;;;11.35;6.70;;;;;;;23.13;58.01;101728.09;5019800;28;20034;-48
2023/06/22 07:01:16;;;;;;;13.15;7.05;;;;;;;23.12;58.28;101721.81;5018133;28;20034;-50
2023/06/22 07:03:41;;;;;;;8.90;5.60;;;;;;;23.14;58.38;101721.66;5020185;28;20030;-54
2023/06/22 07:06:08;;;;;;;8.73;6.40;;;;;;;23.13;58.30;101728.09;5017075;28;20041;-49
2023/06/22 07:08:35;;;;;;;8.93;6.38;;;;;;;23.13;58.04;101718.09;5020246;28;20128;-50
2023/06/22 07:11:00;;;;;;;11.38;6.75;;;;;;;23.13;58.07;101709.97;5021409;28;20037;-49
2023/06/22 07:13:26;;;;;;;8.50;6.57;;;;;;;23.14;58.25;101718.94;5021021;28;20507;-49
2023/06/22 07:15:51;;;;;;;11.32;6.80;;;;;;;23.15;58.23;101715.22;5021546;28;20049;-50
2023/06/22 07:18:16;;;;;;;11.52;5.70;;;;;;;23.15;58.62;101710.66;5014839;28;20041;-47
2023/06/22 07:20:42;;;;;;;9.00;6.32;;;;;;;23.16;58.13;101711.50;5019839;28;20045;-50
2023/06/22 07:23:07;;;;;;;6.68;5.88;;;;;;;23.15;58.67;101701.63;5019975;28;20034;-46
2023/06/22 07:25:33;;;;;;;9.07;6.68;;;;;;;23.15;58.41;101713.38;5021461;28;20040;-51
2023/06/22 07:28:02;;;;;;;9.20;6.55;;;;;;;23.17;58.75;101710.47;5019150;28;20164;-51
2023/06/22 07:30:28;;;;;;;9.10;5.95;;;;;;;23.17;58.30;101713.19;5020508;28;20037;-50
2023/06/22 07:32:54;;;;;;;9.05;5.85;;;;;;;23.17;58.26;101702.31;5014952;28;20034;-49
2023/06/22 07:35:20;;;;;;;10.18;6.82;;;;;;;23.16;58.67;101700.63;5019867;28;20033;-48
2023/06/22 07:37:45;;;;;;;11.05;7.00;;;;;;;23.17;58.38;101705.91;5014428;28;20372;-49
2023/06/22 07:40:11;;;;;;;7.20;6.50;;;;;;;23.18;58.86;101704.03;5017871;28;20116;-49
2023/06/22 07:42:36;;;;;;;9.10;6.38;;;;;;;23.17;58.80;101705.03;5019932;28;20503;-49
2023/06/22 07:45:04;;;;;;;8.38;6.65;;;;;;;23.18;58.93;101701.31;5018718;28;20507;-51
2023/06/22 07:47:30;;;;;;;7.70;6.90;;;;;;;23.17;59.13;101691.44;5019814;28;20040;-48
2023/06/22 07:49:58;;;;;;;8.13;6.10;;;;;;;23.17;58.84;101686.88;5021687;28;20395;-49
2023/06/22 07:52:26;;;;;;;8.45;6.75;;;;;;;23.17;58.95;101675.16;5021777;28;20422;-48
2023/06/22 07:54:52;;;;;;;8.50;7.03;;;;;;;23.18;59.02;101676.88;5023415;28;20029;-49
2023/06/22 07:57:17;;;;;;;7.85;5.97;;;;;;;23.17;59.15;101675.16;5022060;28;20048;-50
2023/06/22 07:59:43;;;;;;;9.73;6.97;;;;;;;23.18;58.95;101668.72;5022174;28;20042;-49
2023/06/22 08:02:09;;;;;;;11.02;7.40;;;;;;;23.17;59.51;101658.84;5023265;28;20506;-49
2023/06/22 08:04:34;;;;;;;8.55;6.32;;;;;;;23.17;59.66;101653.41;5022167;28;20038;-49
2023/06/22 08:07:00;;;;;;;9.35;6.93;;;;;;;23.17;59.57;101647.97;5021195;28;20026;-50
2023/06/22 08:09:29;;;;;;;12.93;6.28;;;;;;;23.17;59.57;101643.41;5021631;28;20431;-49
2023/06/22 08:11:56;;;;;;;9.20;6.40;;;;;;;23.18;59.46;101638.81;5022511;28;20049;-49
2023/06/22 08:14:21;;;;;;;7.28;5.75;;;;;;;23.18;59.77;101633.41;5016546;28;20435;-50
2023/06/22 08:16:47;;;;;;;6.53;5.93;;;;;;;23.19;59.28;101632.41;5021672;28;20100;-49
2023/06/22 08:19:12;;;;;;;7.35;6.38;;;;;;;23.19;59.60;101627.81;5022806;28;20033;-49
2023/06/22 08:21:38;;;;;;;7.25;5.85;;;;;;;23.20;60.01;101620.50;5022212;28;20156;-49
2023/06/22 08:24:03;;;;;;;9.50;6.20;;;;;;;23.20;60.08;101615.06;5022833;28;20117;-49
2023/06/22 08:26:29;;;;;;;7.47;5.68;;;;;;;23.21;59.52;101611.34;5022920;28;20164;-50
2023/06/22 08:28:54;;;;;;;9.30;6.28;;;;;;;23.21;59.84;101617.63;5023070;28;20026;-49
2023/06/22 08:31:20;;;;;;;9.88;6.75;;;;;;;23.21;60.21;101616.78;5025621;28;20025;-49
2023/06/22 08:33:46;;;;;;;8.57;6.20;;;;;;;23.21;59.65;101620.34;5021134;28;20357;-48
2023/06/22 08:36:13;;;;;;;10.68;6.72;;;;;;;23.22;60.03;101624.75;5022198;28;20037;-49
2023/06/22 08:38:38;;;;;;;10.73;6.30;;;;;;;23.23;59.63;101625.63;5022981;28;20507;-46
2023/06/22 08:41:04;;;;;;;7.90;6.18;;;;;;;23.24;60.10;101616.44;5022613;28;20109;-49
2023/06/22 08:43:29;;;;;;;10.95;6.05;;;;;;;23.25;59.74;101611.84;5022998;28;20046;-47
2023/06/22 08:45:54;;;;;;;7.88;5.40;;;;;;;23.24;59.65;101608.28;5023435;28;20029;-48
2023/06/22 08:48:20;;;;;;;8.77;5.28;;;;;;;23.25;59.71;101611.84;5023922;28;20095;-50
2023/06/22 08:50:45;;;;;;;8.55;6.32;;;;;;;23.25;59.52;101618.16;5018903;28;20377;-49
2023/06/22 08:53:10;;;;;;;7.88;5.95;;;;;;;23.25;59.83;101618.16;5022099;28;20041;-50
2023/06/22 08:55:36;;;;;;;10.85;5.80;;;;;;;23.25;59.38;101618.16;5023073;28;20452;-50
2023/06/22 08:58:01;;;;;;;8.55;5.93;;;;;;;23.25;59.42;101622.72;5022905;28;20041;-50
2023/06/22 09:00:29;;;;;;;8.68;5.38;;;;;;;23.25;59.03;101617.28;5022124;28;20491;-50
2023/06/22 09:02:58;;;;;;;9.98;5.38;;;;;;;23.25;59.09;101607.28;5022845;28;20042;-50
2023/06/22 09:05:25;;;;;;;6.35;5.05;;;;;;;23.25;59.52;101599.13;5019570;28;20072;-49
2023/06/22 09:07:50;;;;;;;7.68;5.18;;;;;;;23.26;59.45;101595.38;5023515;28;20053;-47
2023/06/22 09:10:16;;;;;;;10.90;5.05;;;;;;;23.25;59.21;101596.41;5016566;28;20033;-48
2023/06/22 09:12:42;;;;;;;7.28;5.03;;;;;;;23.25;58.62;101598.25;5021644;28;20124;-48
2023/06/22 09:15:08;;;;;;;6.63;5.18;;;;;;;23.24;58.62;101594.69;5023346;28;20357;-49
2023/06/22 09:17:34;;;;;;;5.50;4.70;;;;;;;23.25;58.62;101590.09;5021672;28;20128;-50
2023/06/22 09:19:59;;;;;;;5.72;4.15;;;;;;;23.25;58.53;101595.53;5021980;28;20096;-49
2023/06/22 09:22:28;;;;;;;8.20;5.13;;;;;;;23.25;58.74;101587.41;5022191;28;20492;-49
2023/06/22 09:24:55;;;;;;;9.00;5.00;;;;;;;23.24;58.78;101589.28;5023265;28;20033;-48
2023/06/22 09:27:20;;;;;;;10.23;4.90;;;;;;;23.25;58.75;101580.13;5022180;28;20095;-48
2023/06/22 09:29:46;;;;;;;8.23;5.20;;;;;;;23.25;58.54;101581.97;5022362;28;20029;-49
2023/06/22 09:32:11;;;;;;;8.48;5.35;;;;;;;23.23;57.79;101584.88;5022109;28;20124;-47
2023/06/22 09:34:36;;;;;;;9.07;4.72;;;;;;;23.24;58.48;101589.28;5022692;28;20395;-49
2023/06/22 09:37:02;;;;;;;6.95;5.00;;;;;;;23.23;58.34;101582.16;5021097;28;20058;-50
2023/06/22 09:39:27;;;;;;;6.57;5.00;;;;;;;23.23;58.27;101582.16;5022254;28;20369;-49
2023/06/22 09:41:53;;;;;;;4.88;4.38;;;;;;;23.23;57.75;101579.44;5022514;28;20121;-48
2023/06/22 09:44:18;;;;;;;7.45;5.32;;;;;;;23.24;58.06;101589.28;5020889;28;20029;-50
2023/06/22 09:46:44;;;;;;;7.13;5.20;;;;;;;23.24;57.83;101594.69;5022713;28;20033;-48
2023/06/22 09:49:09;;;;;;;6.13;5.13;;;;;;;23.22;57.60;101583.16;5019588;28;20033;-49
2023/06/22 09:51:34;;;;;;;5.80;5.00;;;;;;;23.25;57.69;101590.09;5022879;28;20176;-50
2023/06/22 09:54:00;;;;;;;5.32;4.82;;;;;;;23.24;57.45;101575.69;5021810;28;20034;-49
2023/06/22 09:56:28;;;;;;;8.50;5.55;;;;;;;23.23;58.08;101580.28;5021485;28;20037;-48
2023/06/22 09:58:53;;;;;;;9.50;5.10;;;;;;;23.23;57.62;101576.72;5021337;28;20108;-49
2023/06/22 10:01:20;;;;;;;6.38;4.53;;;;;;;23.24;57.57;101572.97;5023975;28;20159;-48
2023/06/22 10:03:46;;;;;;;5.85;5.10;;;;;;;23.23;57.95;101572.13;5017872;28;20057;-47
2023/06/22 10:06:11;;;;;;;7.38;5.15;;;;;;;23.24;57.54;101581.13;5019554;28;20124;-48
2023/06/22 10:08:36;;;;;;;7.60;4.60;;;;;;;23.23;57.64;101574.84;5019126;28;20085;-47
2023/06/22 10:11:03;;;;;;;6.30;5.03;;;;;;;23.23;57.79;101569.41;5021677;28;20049;-50
2023/06/22 10:13:29;;;;;;;7.28;4.30;;;;;;;23.24;57.70;101575.69;5020377;28;20025;-49
2023/06/22 10:15:54;;;;;;;5.85;4.97;;;;;;;23.23;57.71;101569.41;5020854;28;20041;-48
2023/06/22 10:18:20;;;;;;;7.60;5.63;;;;;;;23.24;57.65;101575.69;5021270;28;20026;-49
2023/06/22 10:20:48;;;;;;;5.47;4.70;;;;;;;23.23;57.95;101576.72;5020694;28;20171;-50
2023/06/22 10:23:14;;;;;;;5.18;4.68;;;;;;;23.23;57.97;101569.41;5020922;28;20025;-50
2023/06/22 10:25:39;;;;;;;6.47;4.72;;;;;;;23.24;57.61;101578.41;5021186;28;20040;-48
2023/06/22 10:28:04;;;;;;;8.15;5.28;;;;;;;23.23;57.84;101569.41;5020258;28;20029;-49
2023/06/22 10:30:30;;;;;;;6.07;5.32;;;;;;;23.23;57.62;101563.13;5018713;28;20468;-49
2023/06/22 10:32:55;;;;;;;7.28;5.65;;;;;;;23.23;57.63;101563.97;5020490;28;20399;-50
2023/06/22 10:35:20;;;;;;;5.68;5.00;;;;;;;23.24;57.68;101567.53;5020352;28;20037;-47
2023/06/22 10:37:46;;;;;;;6.40;4.90;;;;;;;23.24;57.95;101564.81;5018657;28;20041;-49
2023/06/22 10:40:17;;;;;;;5.88;4.40;;;;;;;23.24;57.99;101564.81;5019550;28;21079;-50
2023/06/22 10:42:43;;;;;;;8.07;5.07;;;;;;;23.25;57.99;101580.13;5019609;28;20476;-48
2023/06/22 10:45:09;;;;;;;10.75;5.30;;;;;;;23.24;58.49;101586.56;5015383;28;20026;-48
2023/06/22 10:47:35;;;;;;;6.50;5.28;;;;;;;23.25;58.43;101588.28;5020619;28;20509;-49
2023/06/22 10:50:01;;;;;;;5.95;5.28;;;;;;;23.25;58.16;101596.41;5019098;28;20033;-45
2023/06/22 10:52:26;;;;;;;7.53;4.97;;;;;;;23.26;58.49;101597.25;5019103;28;20036;-49
2023/06/22 10:54:52;;;;;;;8.38;5.28;;;;;;;23.27;58.19;101597.09;5017498;28;20398;-49
2023/06/22 10:57:17;;;;;;;8.05;5.70;;;;;;;23.27;58.23;101607.97;5018442;28;20092;-45
2023/06/22 10:59:43;;;;;;;8.48;5.50;;;;;;;23.27;58.70;101607.13;5019234;28;20038;-49
2023/06/22 11:02:08;;;;;;;9.00;5.53;;;;;;;23.28;58.40;101611.53;5019281;28;20056;-51
2023/06/22 11:04:34;;;;;;;6.72;5.43;;;;;;;23.26;58.49;101608.97;5015358;28;20038;-48
2023/06/22 11:06:59;;;;;;;6.82;5.60;;;;;;;23.26;58.84;101608.97;5019222;28;20072;-47
2023/06/22 11:09:25;;;;;;;7.20;5.38;;;;;;;23.26;58.79;101608.97;5016551;28;20062;-51
2023/06/22 11:11:54;;;;;;;7.40;5.78;;;;;;;23.25;59.24;101600.97;5020634;28;20048;-49
2023/06/22 11:14:19;;;;;;;7.40;6.53;;;;;;;23.27;59.66;101607.97;5020347;28;20368;-48
2023/06/22 11:16:46;;;;;;;7.38;6.10;;;;;;;23.26;59.67;101614.41;5017608;28;20174;-47
2023/06/22 11:19:11;;;;;;;9.65;6.68;;;;;;;23.26;60.51;101617.13;5019695;28;20076;-50
2023/06/22 11:21:37;;;;;;;8.65;6.15;;;;;;;23.25;60.35;101628.16;5018663;28;20042;-48